sensor_id;sensor_type;location;lat;lon;timestamp;temperature;humidity
49148;DHT22;41980;45.550;12.070;2022-08-16T00:02:50;22.20;71.80
49148;DHT22;41980;45.550;12.070;2022-08-16T00:08:53;21.90;71.90
49148;DHT22;41980;45.550;12.070;2022-08-16T00:14:57;21.60;73.50
49148;DHT22;41980;45.550;12.070;2022-08-16T00:21:00;21.40;74.90
49148;DHT22;41980;45.550;12.070;2022-08-16T00:27:03;21.30;77.00
49148;DHT22;41980;45.550;12.070;2022-08-16T00:33:05;21.10;79.40
49148;DHT22;41980;45.550;12.070;2022-08-16T00:39:13;21.20;78.40
49148;DHT22;41980;45.550;12.070;2022-08-16T00:51:27;21.30;76.50
49148;DHT22;41980;45.550;12.070;2022-08-16T00:57:29;21.30;75.50
49148;DHT22;41980;45.550;12.070;2022-08-16T01:03:36;21.30;74.60
49148;DHT22;41980;45.550;12.070;2022-08-16T01:09:40;21.30;74.40
49148;DHT22;41980;45.550;12.070;2022-08-16T01:15:48;21.30;74.30
49148;DHT22;41980;45.550;12.070;2022-08-16T01:28:07;21.20;74.00
49148;DHT22;41980;45.550;12.070;2022-08-16T01:34:12;21.20;76.40
49148;DHT22;41980;45.550;12.070;2022-08-16T01:40:25;21.20;74.70
49148;DHT22;41980;45.550;12.070;2022-08-16T01:46:33;21.20;74.90
49148;DHT22;41980;45.550;12.070;2022-08-16T01:52:41;21.20;74.70
49148;DHT22;41980;45.550;12.070;2022-08-16T01:58:50;21.30;74.20
49148;DHT22;41980;45.550;12.070;2022-08-16T02:04:53;21.30;73.70
49148;DHT22;41980;45.550;12.070;2022-08-16T02:10:57;21.40;73.40
49148;DHT22;41980;45.550;12.070;2022-08-16T02:17:03;21.40;73.10
49148;DHT22;41980;45.550;12.070;2022-08-16T02:23:09;21.50;73.30
49148;DHT22;41980;45.550;12.070;2022-08-16T02:29:12;21.50;73.30
49148;DHT22;41980;45.550;12.070;2022-08-16T02:35:15;21.50;73.40
49148;DHT22;41980;45.550;12.070;2022-08-16T02:41:18;21.50;73.40
49148;DHT22;41980;45.550;12.070;2022-08-16T02:47:20;21.50;73.10
49148;DHT22;41980;45.550;12.070;2022-08-16T02:53:23;21.50;73.30
49148;DHT22;41980;45.550;12.070;2022-08-16T02:59:26;21.50;73.70
49148;DHT22;41980;45.550;12.070;2022-08-16T03:05:28;21.50;74.50
49148;DHT22;41980;45.550;12.070;2022-08-16T03:11:32;21.40;73.30
49148;DHT22;41980;45.550;12.070;2022-08-16T03:17:34;21.30;73.40
49148;DHT22;41980;45.550;12.070;2022-08-16T03:23:38;21.30;73.50
49148;DHT22;41980;45.550;12.070;2022-08-16T03:29:43;21.20;73.00
49148;DHT22;41980;45.550;12.070;2022-08-16T03:35:45;21.20;73.30
49148;DHT22;41980;45.550;12.070;2022-08-16T03:41:51;21.10;73.10
49148;DHT22;41980;45.550;12.070;2022-08-16T03:47:56;21.00;73.30
49148;DHT22;41980;45.550;12.070;2022-08-16T03:53:58;20.90;73.30
49148;DHT22;41980;45.550;12.070;2022-08-16T04:00:03;20.90;73.40
49148;DHT22;41980;45.550;12.070;2022-08-16T04:06:15;20.80;73.30
49148;DHT22;41980;45.550;12.070;2022-08-16T04:12:19;20.80;73.20
49148;DHT22;41980;45.550;12.070;2022-08-16T04:18:21;20.80;73.30
49148;DHT22;41980;45.550;12.070;2022-08-16T04:24:28;20.70;73.60
49148;DHT22;41980;45.550;12.070;2022-08-16T04:30:30;20.80;74.10
49148;DHT22;41980;45.550;12.070;2022-08-16T04:36:32;20.70;73.90
49148;DHT22;41980;45.550;12.070;2022-08-16T04:42:37;20.80;74.00
49148;DHT22;41980;45.550;12.070;2022-08-16T04:48:42;20.80;73.90
49148;DHT22;41980;45.550;12.070;2022-08-16T04:54:46;20.90;73.80
49148;DHT22;41980;45.550;12.070;2022-08-16T05:00:48;21.00;73.80
49148;DHT22;41980;45.550;12.070;2022-08-16T05:06:55;21.20;73.40
49148;DHT22;41980;45.550;12.070;2022-08-16T05:13:01;21.50;73.20
49148;DHT22;41980;45.550;12.070;2022-08-16T05:19:05;22.80;73.20
49148;DHT22;41980;45.550;12.070;2022-08-16T05:25:12;25.40;69.80
49148;DHT22;41980;45.550;12.070;2022-08-16T05:31:20;27.30;66.60
49148;DHT22;41980;45.550;12.070;2022-08-16T05:37:22;28.90;64.80
49148;DHT22;41980;45.550;12.070;2022-08-16T05:43:27;30.00;62.00
49148;DHT22;41980;45.550;12.070;2022-08-16T05:49:30;30.50;61.60
49148;DHT22;41980;45.550;12.070;2022-08-16T05:55:33;31.20;59.90
49148;DHT22;41980;45.550;12.070;2022-08-16T06:01:35;31.70;58.00
49148;DHT22;41980;45.550;12.070;2022-08-16T06:07:38;31.70;49.20
49148;DHT22;41980;45.550;12.070;2022-08-16T06:13:49;32.00;55.50
49148;DHT22;41980;45.550;12.070;2022-08-16T06:19:57;32.40;54.30
49148;DHT22;41980;45.550;12.070;2022-08-16T06:25:59;33.00;54.30
49148;DHT22;41980;45.550;12.070;2022-08-16T06:32:06;33.70;53.40
49148;DHT22;41980;45.550;12.070;2022-08-16T06:38:08;34.30;52.10
49148;DHT22;41980;45.550;12.070;2022-08-16T06:44:11;34.80;52.00
49148;DHT22;41980;45.550;12.070;2022-08-16T06:50:13;35.20;51.00
49148;DHT22;41980;45.550;12.070;2022-08-16T06:56:20;35.70;50.80
49148;DHT22;41980;45.550;12.070;2022-08-16T07:02:35;36.00;50.40
49148;DHT22;41980;45.550;12.070;2022-08-16T07:08:40;36.40;50.10
49148;DHT22;41980;45.550;12.070;2022-08-16T07:14:44;37.00;49.80
49148;DHT22;41980;45.550;12.070;2022-08-16T07:20:53;37.50;47.60
49148;DHT22;41980;45.550;12.070;2022-08-16T07:26:56;37.70;47.30
49148;DHT22;41980;45.550;12.070;2022-08-16T07:32:58;37.90;47.70
49148;DHT22;41980;45.550;12.070;2022-08-16T07:39:00;38.10;46.80
49148;DHT22;41980;45.550;12.070;2022-08-16T07:45:09;38.30;46.40
49148;DHT22;41980;45.550;12.070;2022-08-16T07:51:11;38.30;45.80
49148;DHT22;41980;45.550;12.070;2022-08-16T07:57:16;38.40;46.00
49148;DHT22;41980;45.550;12.070;2022-08-16T08:03:19;38.50;45.50
49148;DHT22;41980;45.550;12.070;2022-08-16T08:09:21;38.20;44.80
49148;DHT22;41980;45.550;12.070;2022-08-16T08:15:23;38.30;45.40
49148;DHT22;41980;45.550;12.070;2022-08-16T08:21:26;38.60;45.30
49148;DHT22;41980;45.550;12.070;2022-08-16T08:27:29;38.70;45.10
49148;DHT22;41980;45.550;12.070;2022-08-16T08:33:32;38.90;43.90
49148;DHT22;41980;45.550;12.070;2022-08-16T08:39:34;38.50;44.00
49148;DHT22;41980;45.550;12.070;2022-08-16T08:45:41;38.70;44.40
49148;DHT22;41980;45.550;12.070;2022-08-16T08:51:43;38.70;43.90
49148;DHT22;41980;45.550;12.070;2022-08-16T08:57:49;38.70;43.60
49148;DHT22;41980;45.550;12.070;2022-08-16T09:03:58;39.00;41.80
49148;DHT22;41980;45.550;12.070;2022-08-16T09:10:02;38.60;42.90
49148;DHT22;41980;45.550;12.070;2022-08-16T09:16:07;38.90;42.50
49148;DHT22;41980;45.550;12.070;2022-08-16T09:22:12;39.00;42.00
49148;DHT22;41980;45.550;12.070;2022-08-16T09:28:15;38.40;41.40
49148;DHT22;41980;45.550;12.070;2022-08-16T09:34:23;38.50;40.70
49148;DHT22;41980;45.550;12.070;2022-08-16T09:40:26;38.20;40.70
49148;DHT22;41980;45.550;12.070;2022-08-16T09:46:29;37.80;39.70
49148;DHT22;41980;45.550;12.070;2022-08-16T09:52:32;37.30;40.00
49148;DHT22;41980;45.550;12.070;2022-08-16T09:58:36;37.30;40.10
49148;DHT22;41980;45.550;12.070;2022-08-16T10:04:38;37.30;39.80
49148;DHT22;41980;45.550;12.070;2022-08-16T10:10:41;37.70;39.90
49148;DHT22;41980;45.550;12.070;2022-08-16T10:17:04;37.70;40.00
49148;DHT22;41980;45.550;12.070;2022-08-16T10:23:09;37.60;40.20
49148;DHT22;41980;45.550;12.070;2022-08-16T10:29:12;37.40;40.40
49148;DHT22;41980;45.550;12.070;2022-08-16T10:35:14;36.90;40.10
49148;DHT22;41980;45.550;12.070;2022-08-16T10:41:16;35.60;41.00
49148;DHT22;41980;45.550;12.070;2022-08-16T10:47:19;34.50;41.70
49148;DHT22;41980;45.550;12.070;2022-08-16T10:53:25;33.90;42.00
49148;DHT22;41980;45.550;12.070;2022-08-16T10:59:29;33.40;42.20
49148;DHT22;41980;45.550;12.070;2022-08-16T11:05:35;32.90;42.40
49148;DHT22;41980;45.550;12.070;2022-08-16T11:11:38;32.40;42.60
49148;DHT22;41980;45.550;12.070;2022-08-16T11:17:40;32.00;42.80
49148;DHT22;41980;45.550;12.070;2022-08-16T11:23:42;31.80;43.20
49148;DHT22;41980;45.550;12.070;2022-08-16T11:29:44;31.60;43.40
49148;DHT22;41980;45.550;12.070;2022-08-16T11:35:46;31.70;43.40
49148;DHT22;41980;45.550;12.070;2022-08-16T11:41:48;31.70;43.40
49148;DHT22;41980;45.550;12.070;2022-08-16T11:47:50;31.50;43.50
49148;DHT22;41980;45.550;12.070;2022-08-16T11:53:53;31.40;43.60
49148;DHT22;41980;45.550;12.070;2022-08-16T11:59:55;31.40;43.60
49148;DHT22;41980;45.550;12.070;2022-08-16T12:05:59;31.50;43.60
49148;DHT22;41980;45.550;12.070;2022-08-16T12:12:03;31.40;43.60
49148;DHT22;41980;45.550;12.070;2022-08-16T12:18:07;31.30;43.80
49148;DHT22;41980;45.550;12.070;2022-08-16T12:24:09;31.20;43.90
49148;DHT22;41980;45.550;12.070;2022-08-16T12:30:15;31.20;44.00
49148;DHT22;41980;45.550;12.070;2022-08-16T12:36:18;31.10;44.00
49148;DHT22;41980;45.550;12.070;2022-08-16T12:42:24;31.10;43.90
49148;DHT22;41980;45.550;12.070;2022-08-16T12:48:30;30.80;44.00
49148;DHT22;41980;45.550;12.070;2022-08-16T12:54:36;30.80;44.30
49148;DHT22;41980;45.550;12.070;2022-08-16T13:00:41;30.70;44.30
49148;DHT22;41980;45.550;12.070;2022-08-16T13:06:45;30.70;44.40
49148;DHT22;41980;45.550;12.070;2022-08-16T13:12:51;30.80;44.60
49148;DHT22;41980;45.550;12.070;2022-08-16T13:18:53;30.80;44.30
49148;DHT22;41980;45.550;12.070;2022-08-16T13:24:55;30.70;44.70
49148;DHT22;41980;45.550;12.070;2022-08-16T13:30:58;30.70;44.70
49148;DHT22;41980;45.550;12.070;2022-08-16T13:37:00;30.80;44.80
49148;DHT22;41980;45.550;12.070;2022-08-16T13:43:03;30.70;44.80
49148;DHT22;41980;45.550;12.070;2022-08-16T13:49:05;30.80;45.00
49148;DHT22;41980;45.550;12.070;2022-08-16T13:55:09;30.80;45.10
49148;DHT22;41980;45.550;12.070;2022-08-16T14:01:11;30.80;45.60
49148;DHT22;41980;45.550;12.070;2022-08-16T14:07:14;30.80;46.50
49148;DHT22;41980;45.550;12.070;2022-08-16T14:13:17;30.70;46.50
49148;DHT22;41980;45.550;12.070;2022-08-16T14:19:19;30.60;46.60
49148;DHT22;41980;45.550;12.070;2022-08-16T14:25:22;30.70;47.20
49148;DHT22;41980;45.550;12.070;2022-08-16T14:31:25;30.60;46.90
49148;DHT22;41980;45.550;12.070;2022-08-16T14:37:29;30.60;47.00
49148;DHT22;41980;45.550;12.070;2022-08-16T14:43:32;30.60;47.20
49148;DHT22;41980;45.550;12.070;2022-08-16T14:49:34;30.60;47.50
49148;DHT22;41980;45.550;12.070;2022-08-16T14:55:37;30.50;47.80
49148;DHT22;41980;45.550;12.070;2022-08-16T15:01:40;30.40;47.70
49148;DHT22;41980;45.550;12.070;2022-08-16T15:07:46;30.40;48.10
49148;DHT22;41980;45.550;12.070;2022-08-16T15:13:50;30.30;47.80
49148;DHT22;41980;45.550;12.070;2022-08-16T15:19:52;30.30;48.80
49148;DHT22;41980;45.550;12.070;2022-08-16T15:25:54;30.40;48.10
49148;DHT22;41980;45.550;12.070;2022-08-16T15:31:56;30.30;48.30
49148;DHT22;41980;45.550;12.070;2022-08-16T15:38:01;30.30;48.20
49148;DHT22;41980;45.550;12.070;2022-08-16T15:44:06;30.20;48.50
49148;DHT22;41980;45.550;12.070;2022-08-16T15:50:09;30.20;48.60
49148;DHT22;41980;45.550;12.070;2022-08-16T15:56:11;30.10;48.90
49148;DHT22;41980;45.550;12.070;2022-08-16T16:02:15;30.10;49.60
49148;DHT22;41980;45.550;12.070;2022-08-16T16:08:20;30.00;50.60
49148;DHT22;41980;45.550;12.070;2022-08-16T16:14:25;29.90;49.20
49148;DHT22;41980;45.550;12.070;2022-08-16T16:20:29;29.90;49.50
49148;DHT22;41980;45.550;12.070;2022-08-16T16:26:32;29.80;49.80
49148;DHT22;41980;45.550;12.070;2022-08-16T16:32:34;29.70;49.70
49148;DHT22;41980;45.550;12.070;2022-08-16T16:38:36;29.60;49.90
49148;DHT22;41980;45.550;12.070;2022-08-16T16:44:39;29.60;50.10
49148;DHT22;41980;45.550;12.070;2022-08-16T16:50:41;29.50;50.10
49148;DHT22;41980;45.550;12.070;2022-08-16T16:56:43;29.40;50.30
49148;DHT22;41980;45.550;12.070;2022-08-16T17:02:46;29.30;50.60
49148;DHT22;41980;45.550;12.070;2022-08-16T17:08:49;29.20;51.00
49148;DHT22;41980;45.550;12.070;2022-08-16T17:14:52;29.00;51.00
49148;DHT22;41980;45.550;12.070;2022-08-16T17:20:55;29.00;51.20
49148;DHT22;41980;45.550;12.070;2022-08-16T17:26:58;28.80;51.10
49148;DHT22;41980;45.550;12.070;2022-08-16T17:33:03;28.70;51.20
49148;DHT22;41980;45.550;12.070;2022-08-16T17:39:06;28.60;51.30
49148;DHT22;41980;45.550;12.070;2022-08-16T17:45:09;28.50;51.70
49148;DHT22;41980;45.550;12.070;2022-08-16T17:51:11;28.30;51.60
49148;DHT22;41980;45.550;12.070;2022-08-16T17:57:13;28.20;51.80
49148;DHT22;41980;45.550;12.070;2022-08-16T18:09:25;27.80;52.50
49148;DHT22;41980;45.550;12.070;2022-08-16T18:15:27;27.70;52.50
49148;DHT22;41980;45.550;12.070;2022-08-16T18:21:29;27.50;52.60
49148;DHT22;41980;45.550;12.070;2022-08-16T18:27:34;27.30;52.90
49148;DHT22;41980;45.550;12.070;2022-08-16T18:33:37;27.10;52.90
49148;DHT22;41980;45.550;12.070;2022-08-16T18:39:39;27.00;53.80
49148;DHT22;41980;45.550;12.070;2022-08-16T18:45:44;26.90;53.10
49148;DHT22;41980;45.550;12.070;2022-08-16T18:51:47;26.80;53.20
49148;DHT22;41980;45.550;12.070;2022-08-16T18:57:50;26.70;53.20
49148;DHT22;41980;45.550;12.070;2022-08-16T19:03:52;26.60;53.90
49148;DHT22;41980;45.550;12.070;2022-08-16T19:09:54;26.50;53.70
49148;DHT22;41980;45.550;12.070;2022-08-16T19:15:58;26.40;54.10
49148;DHT22;41980;45.550;12.070;2022-08-16T19:22:00;26.30;53.90
49148;DHT22;41980;45.550;12.070;2022-08-16T19:28:03;26.20;54.00
49148;DHT22;41980;45.550;12.070;2022-08-16T19:34:05;26.10;54.20
49148;DHT22;41980;45.550;12.070;2022-08-16T19:40:10;26.10;54.60
49148;DHT22;41980;45.550;12.070;2022-08-16T19:46:13;26.00;54.50
49148;DHT22;41980;45.550;12.070;2022-08-16T19:52:20;26.00;54.40
49148;DHT22;41980;45.550;12.070;2022-08-16T19:58:22;25.90;54.30
49148;DHT22;41980;45.550;12.070;2022-08-16T20:04:24;25.80;54.60
49148;DHT22;41980;45.550;12.070;2022-08-16T20:10:28;25.70;54.70
49148;DHT22;41980;45.550;12.070;2022-08-16T20:22:34;25.60;55.10
49148;DHT22;41980;45.550;12.070;2022-08-16T20:28:36;25.60;55.40
49148;DHT22;41980;45.550;12.070;2022-08-16T20:34:41;25.60;55.10
49148;DHT22;41980;45.550;12.070;2022-08-16T20:40:43;25.50;55.40
49148;DHT22;41980;45.550;12.070;2022-08-16T20:46:45;25.50;55.40
49148;DHT22;41980;45.550;12.070;2022-08-16T20:52:48;25.40;55.50
49148;DHT22;41980;45.550;12.070;2022-08-16T20:58:50;25.40;55.50
49148;DHT22;41980;45.550;12.070;2022-08-16T21:04:53;25.40;55.80
49148;DHT22;41980;45.550;12.070;2022-08-16T21:10:56;25.20;56.30
49148;DHT22;41980;45.550;12.070;2022-08-16T21:17:00;25.20;56.70
49148;DHT22;41980;45.550;12.070;2022-08-16T21:23:04;25.10;56.40
49148;DHT22;41980;45.550;12.070;2022-08-16T21:29:08;25.10;61.60
49148;DHT22;41980;45.550;12.070;2022-08-16T21:35:13;24.90;58.20
49148;DHT22;41980;45.550;12.070;2022-08-16T21:41:16;24.80;58.40
49148;DHT22;41980;45.550;12.070;2022-08-16T21:47:18;24.70;58.90
49148;DHT22;41980;45.550;12.070;2022-08-16T21:53:22;24.60;59.10
49148;DHT22;41980;45.550;12.070;2022-08-16T21:59:25;24.60;60.30
49148;DHT22;41980;45.550;12.070;2022-08-16T22:05:27;24.50;59.50
49148;DHT22;41980;45.550;12.070;2022-08-16T22:11:30;24.50;59.10
49148;DHT22;41980;45.550;12.070;2022-08-16T22:17:32;24.50;59.00
49148;DHT22;41980;45.550;12.070;2022-08-16T22:23:34;24.50;60.30
49148;DHT22;41980;45.550;12.070;2022-08-16T22:29:36;24.50;59.50
49148;DHT22;41980;45.550;12.070;2022-08-16T22:35:41;24.40;61.20
49148;DHT22;41980;45.550;12.070;2022-08-16T22:41:45;24.40;60.20
49148;DHT22;41980;45.550;12.070;2022-08-16T22:47:50;24.30;60.20
49148;DHT22;41980;45.550;12.070;2022-08-16T22:53:53;24.30;60.80
49148;DHT22;41980;45.550;12.070;2022-08-16T22:59:55;24.20;60.30
49148;DHT22;41980;45.550;12.070;2022-08-16T23:05:58;24.20;60.50
49148;DHT22;41980;45.550;12.070;2022-08-16T23:12:02;24.20;60.20
49148;DHT22;41980;45.550;12.070;2022-08-16T23:18:04;24.20;60.40
49148;DHT22;41980;45.550;12.070;2022-08-16T23:24:08;24.20;60.80
49148;DHT22;41980;45.550;12.070;2022-08-16T23:30:10;24.10;60.90
49148;DHT22;41980;45.550;12.070;2022-08-16T23:36:13;24.00;61.60
49148;DHT22;41980;45.550;12.070;2022-08-16T23:42:15;24.00;62.50
49148;DHT22;41980;45.550;12.070;2022-08-16T23:48:19;24.00;62.40
49148;DHT22;41980;45.550;12.070;2022-08-16T23:54:24;23.90;61.90
